createdAt,value
2023-02-03T00:00:42.987Z,1018.57
2023-02-03T00:01:43.019Z,1018.55
2023-02-03T00:02:43.000Z,1018.55
2023-02-03T00:03:42.949Z,1018.56
2023-02-03T00:04:42.937Z,1018.52
2023-02-03T00:05:43.019Z,1018.53
2023-02-03T00:06:42.892Z,1018.56
2023-02-03T00:07:42.895Z,1018.55
2023-02-03T00:08:42.862Z,1018.53
2023-02-03T00:09:42.860Z,1018.51
2023-02-03T00:10:42.835Z,1018.53
2023-02-03T00:11:42.853Z,1018.51
2023-02-03T00:12:42.816Z,1018.49
2023-02-03T00:13:42.825Z,1018.43
2023-02-03T00:14:42.812Z,1018.45
2023-02-03T00:15:42.798Z,1018.45
2023-02-03T00:16:42.868Z,1018.44
2023-02-03T00:17:42.810Z,1018.41
2023-02-03T00:18:42.756Z,1018.40
2023-02-03T00:19:42.761Z,1018.37
2023-02-03T00:20:42.726Z,1018.40
2023-02-03T00:21:42.730Z,1018.38
2023-02-03T00:22:42.732Z,1018.41
2023-02-03T00:23:42.720Z,1018.40
2023-02-03T00:24:42.700Z,1018.38
2023-02-03T00:25:42.687Z,1018.35
2023-02-03T00:26:42.669Z,1018.32
2023-02-03T00:27:42.717Z,1018.36
2023-02-03T00:28:42.656Z,1018.37
2023-02-03T00:29:42.643Z,1018.37
2023-02-03T00:30:42.631Z,1018.36
2023-02-03T00:31:42.735Z,1018.33
2023-02-03T00:32:42.673Z,1018.38
2023-02-03T00:33:42.593Z,1018.43
2023-02-03T00:34:42.622Z,1018.46
2023-02-03T00:35:42.589Z,1018.48
2023-02-03T00:36:43.128Z,1018.53
2023-02-03T00:37:42.575Z,1018.49
2023-02-03T00:38:42.566Z,1018.52
2023-02-03T00:39:42.566Z,1018.52
2023-02-03T00:40:42.536Z,1018.50
2023-02-03T00:41:42.525Z,1018.52
2023-02-03T00:42:42.503Z,1018.51
2023-02-03T00:43:42.537Z,1018.50
2023-02-03T00:44:42.489Z,1018.56
2023-02-03T00:45:42.511Z,1018.57
2023-02-03T00:46:42.488Z,1018.57
2023-02-03T00:47:42.457Z,1018.56
2023-02-03T00:48:42.424Z,1018.56
2023-02-03T00:49:42.439Z,1018.60
2023-02-03T00:50:42.415Z,1018.62
2023-02-03T00:51:42.421Z,1018.63
2023-02-03T00:52:42.403Z,1018.64
2023-02-03T00:53:42.395Z,1018.61
2023-02-03T00:54:42.394Z,1018.66
2023-02-03T00:55:42.374Z,1018.65
2023-02-03T00:56:42.365Z,1018.67
2023-02-03T00:57:42.341Z,1018.74
2023-02-03T00:58:42.309Z,1018.78
2023-02-03T00:59:42.370Z,1018.82
2023-02-03T01:00:42.305Z,1018.85
2023-02-03T01:01:42.296Z,1018.93
2023-02-03T01:02:42.389Z,1018.96
2023-02-03T01:03:42.331Z,1019.02
2023-02-03T01:04:42.263Z,1018.99
2023-02-03T01:05:42.239Z,1019.07
2023-02-03T01:06:42.278Z,1019.10
2023-02-03T01:07:42.250Z,1019.15
2023-02-03T01:08:42.221Z,1019.14
2023-02-03T01:09:42.246Z,1019.09
2023-02-03T01:10:42.192Z,1019.02
2023-02-03T01:11:42.192Z,1018.98
2023-02-03T01:12:42.173Z,1018.95
2023-02-03T01:13:42.200Z,1018.92
2023-02-03T01:14:42.166Z,1018.92
2023-02-03T01:15:42.149Z,1018.91
2023-02-03T01:16:42.153Z,1018.93
2023-02-03T01:17:42.151Z,1018.95
2023-02-03T01:18:42.110Z,1018.93
2023-02-03T01:19:42.117Z,1018.94
2023-02-03T01:20:42.097Z,1018.93
2023-02-03T01:21:42.104Z,1018.93
2023-02-03T01:22:42.100Z,1018.94
2023-02-03T01:23:42.057Z,1018.98
2023-02-03T01:24:42.053Z,1018.96
2023-02-03T01:25:42.053Z,1018.98
2023-02-03T01:26:42.031Z,1018.95
2023-02-03T01:27:42.072Z,1018.92
2023-02-03T01:28:42.019Z,1018.95
2023-02-03T01:29:42.016Z,1019.04
2023-02-03T01:30:42.062Z,1019.04
2023-02-03T01:31:42.115Z,1019.08
2023-02-03T01:32:41.957Z,1019.07
2023-02-03T01:33:41.972Z,1019.00
2023-02-03T01:34:41.943Z,1018.94
2023-02-03T01:35:41.916Z,1018.86
2023-02-03T01:36:41.910Z,1018.81
2023-02-03T01:37:41.912Z,1018.86
2023-02-03T01:38:41.907Z,1018.87
2023-02-03T01:39:41.910Z,1018.92
2023-02-03T01:40:41.862Z,1018.84
2023-02-03T01:41:41.878Z,1018.85
2023-02-03T01:42:41.852Z,1018.82
2023-02-03T01:43:41.855Z,1018.86
2023-02-03T01:44:41.817Z,1018.78
2023-02-03T01:45:41.943Z,1018.87
2023-02-03T01:46:41.827Z,1018.87
2023-02-03T01:47:41.807Z,1018.86
2023-02-03T01:48:41.820Z,1018.82
2023-02-03T01:49:41.844Z,1018.85
2023-02-03T01:50:41.772Z,1018.80
2023-02-03T01:51:41.781Z,1018.86
2023-02-03T01:52:41.762Z,1018.87
2023-02-03T01:53:41.747Z,1018.84
2023-02-03T01:54:41.743Z,1018.82
2023-02-03T01:55:41.731Z,1018.87
2023-02-03T01:56:41.683Z,1018.94
2023-02-03T01:57:41.705Z,1018.92
2023-02-03T01:58:41.676Z,1018.85
2023-02-03T01:59:41.670Z,1018.74
2023-02-03T02:00:41.684Z,1018.65
2023-02-03T02:01:41.695Z,1018.69
2023-02-03T02:02:41.647Z,1018.68
2023-02-03T02:03:41.628Z,1018.65
2023-02-03T02:04:41.625Z,1018.66
2023-02-03T02:05:41.608Z,1018.69
2023-02-03T02:06:41.605Z,1018.67
2023-02-03T02:07:41.571Z,1018.63
2023-02-03T02:08:41.570Z,1018.59
2023-02-03T02:09:41.581Z,1018.48
2023-02-03T02:10:41.541Z,1018.40
2023-02-03T02:11:41.563Z,1018.36
2023-02-03T02:12:41.512Z,1018.33
2023-02-03T02:13:41.523Z,1018.32
2023-02-03T02:14:41.551Z,1018.29
2023-02-03T02:15:41.557Z,1018.26
2023-02-03T02:16:41.499Z,1018.23
2023-02-03T02:17:41.481Z,1018.17
2023-02-03T02:18:41.457Z,1018.15
2023-02-03T02:19:41.484Z,1018.19
2023-02-03T02:20:41.438Z,1018.27
2023-02-03T02:21:41.457Z,1018.25
2023-02-03T02:22:41.414Z,1018.19
2023-02-03T02:23:41.406Z,1018.10
2023-02-03T02:24:41.409Z,1018.02
2023-02-03T02:25:41.395Z,1018.12
2023-02-03T02:26:41.363Z,1018.09
2023-02-03T02:27:41.376Z,1018.07
2023-02-03T02:28:41.359Z,1017.86
2023-02-03T02:29:41.352Z,1017.89
2023-02-03T02:30:41.421Z,1017.94
2023-02-03T02:31:41.488Z,1017.97
2023-02-03T02:32:41.311Z,1017.96
2023-02-03T02:33:41.318Z,1017.84
2023-02-03T02:34:41.287Z,1017.85
2023-02-03T02:35:41.278Z,1017.79
2023-02-03T02:36:41.284Z,1017.80
2023-02-03T02:37:41.258Z,1017.74
2023-02-03T02:38:41.241Z,1017.75
2023-02-03T02:39:41.239Z,1017.84
2023-02-03T02:40:41.235Z,1017.90
2023-02-03T02:41:41.207Z,1017.94
2023-02-03T02:42:41.210Z,1017.94
2023-02-03T02:43:41.202Z,1017.88
2023-02-03T02:44:41.187Z,1017.87
2023-02-03T02:45:41.193Z,1017.88
2023-02-03T02:46:41.195Z,1017.90
2023-02-03T02:47:41.157Z,1017.97
2023-02-03T02:48:41.181Z,1017.97
2023-02-03T02:49:41.128Z,1018.06
2023-02-03T02:50:41.112Z,1018.15
2023-02-03T02:51:41.127Z,1018.24
2023-02-03T02:52:41.121Z,1018.30
2023-02-03T02:53:41.097Z,1018.29
2023-02-03T02:54:41.117Z,1018.27
2023-02-03T02:55:41.061Z,1018.27
2023-02-03T02:56:41.047Z,1018.20
2023-02-03T02:57:41.059Z,1018.19
2023-02-03T02:58:41.035Z,1018.17
2023-02-03T02:59:41.054Z,1018.20
2023-02-03T03:00:41.027Z,1018.25
2023-02-03T03:01:41.112Z,1018.31
2023-02-03T03:02:40.991Z,1018.42
2023-02-03T03:03:41.007Z,1018.40
2023-02-03T03:04:41.007Z,1018.42
2023-02-03T03:05:40.961Z,1018.45
2023-02-03T03:06:40.944Z,1018.44
2023-02-03T03:07:40.954Z,1018.45
2023-02-03T03:08:40.917Z,1018.40
2023-02-03T03:09:40.917Z,1018.38
2023-02-03T03:10:40.892Z,1018.30
2023-02-03T03:11:40.941Z,1018.28
2023-02-03T03:12:40.895Z,1018.25
2023-02-03T03:13:40.874Z,1018.21
2023-02-03T03:14:40.889Z,1018.30
2023-02-03T03:15:40.906Z,1018.18
2023-02-03T03:16:40.832Z,1018.18
2023-02-03T03:17:40.887Z,1018.11
2023-02-03T03:18:40.808Z,1018.16
2023-02-03T03:19:40.801Z,1018.13
2023-02-03T03:20:40.809Z,1018.17
2023-02-03T03:21:40.784Z,1018.21
2023-02-03T03:22:40.767Z,1018.21
2023-02-03T03:23:40.762Z,1018.19
2023-02-03T03:24:40.749Z,1018.13
2023-02-03T03:25:40.762Z,1018.11
2023-02-03T03:26:40.765Z,1018.12
2023-02-03T03:27:40.745Z,1018.10
2023-02-03T03:28:40.702Z,1018.07
2023-02-03T03:29:40.706Z,1018.06
2023-02-03T03:30:40.727Z,1018.07
2023-02-03T03:31:40.820Z,1018.05
2023-02-03T03:32:40.687Z,1018.07
2023-02-03T03:33:40.657Z,1018.10
2023-02-03T03:34:40.637Z,1018.15
2023-02-03T03:35:40.649Z,1018.14
2023-02-03T03:36:40.631Z,1018.18
2023-02-03T03:37:40.611Z,1018.18
2023-02-03T03:38:40.614Z,1018.15
2023-02-03T03:39:40.597Z,1018.14
2023-02-03T03:40:40.595Z,1018.18
2023-02-03T03:41:40.566Z,1018.23
2023-02-03T03:42:40.541Z,1018.23
2023-02-03T03:43:40.586Z,1018.21
2023-02-03T03:44:40.537Z,1018.23
2023-02-03T03:45:40.535Z,1018.22
2023-02-03T03:46:40.514Z,1018.27
2023-02-03T03:47:40.507Z,1018.28
2023-02-03T03:48:40.502Z,1018.29
2023-02-03T03:49:40.515Z,1018.29
2023-02-03T03:50:40.480Z,1018.26
2023-02-03T03:51:40.490Z,1018.24
2023-02-03T03:52:40.444Z,1018.15
2023-02-03T03:53:40.455Z,1018.13
2023-02-03T03:54:40.452Z,1018.10
2023-02-03T03:55:40.421Z,1018.08
2023-02-03T03:56:40.435Z,1018.00
2023-02-03T03:57:40.385Z,1017.99
2023-02-03T03:58:40.391Z,1017.94
2023-02-03T03:59:40.416Z,1017.91
2023-02-03T04:00:40.373Z,1017.93
2023-02-03T04:01:40.499Z,1017.96
2023-02-03T04:02:40.470Z,1017.97
2023-02-03T04:03:40.352Z,1018.02
2023-02-03T04:04:40.324Z,1018.07
2023-02-03T04:05:40.296Z,1018.09
2023-02-03T04:06:40.320Z,1018.13
2023-02-03T04:07:40.282Z,1018.16
2023-02-03T04:08:40.270Z,1018.21
2023-02-03T04:09:40.286Z,1018.19
2023-02-03T04:10:40.275Z,1018.18
2023-02-03T04:11:40.228Z,1018.14
2023-02-03T04:12:40.233Z,1018.16
2023-02-03T04:13:40.243Z,1018.14
2023-02-03T04:14:40.216Z,1018.12
2023-02-03T04:15:40.195Z,1018.13
2023-02-03T04:16:40.191Z,1018.12
2023-02-03T04:17:40.177Z,1018.15
2023-02-03T04:18:40.169Z,1018.16
2023-02-03T04:19:40.169Z,1018.15
2023-02-03T04:20:40.152Z,1018.14
2023-02-03T04:21:40.134Z,1018.16
2023-02-03T04:22:40.135Z,1018.15
2023-02-03T04:23:40.108Z,1018.17
2023-02-03T04:24:40.125Z,1018.17
2023-02-03T04:25:40.105Z,1018.15
2023-02-03T04:26:40.085Z,1018.13
2023-02-03T04:27:40.130Z,1018.13
2023-02-03T04:28:40.083Z,1018.11
2023-02-03T04:29:40.030Z,1018.11
2023-02-03T04:30:40.095Z,1018.06
2023-02-03T04:31:40.072Z,1018.06
2023-02-03T04:32:40.018Z,1018.03
2023-02-03T04:33:40.009Z,1018.05
2023-02-03T04:34:40.439Z,1018.05
2023-02-03T04:35:40.011Z,1018.06
2023-02-03T04:36:40.029Z,1017.99
2023-02-03T04:37:39.957Z,1018.05
2023-02-03T04:38:39.941Z,1018.01
2023-02-03T04:39:39.931Z,1018.01
2023-02-03T04:40:39.937Z,1017.94
2023-02-03T04:41:39.921Z,1017.88
2023-02-03T04:42:39.920Z,1017.80
2023-02-03T04:43:39.899Z,1017.87
2023-02-03T04:44:39.887Z,1017.88
2023-02-03T04:45:39.911Z,1017.93
2023-02-03T04:46:39.878Z,1017.92
2023-02-03T04:47:39.851Z,1017.87
2023-02-03T04:48:39.872Z,1017.92
2023-02-03T04:49:39.836Z,1017.87
2023-02-03T04:50:39.844Z,1017.89
2023-02-03T04:51:39.800Z,1017.95
2023-02-03T04:52:39.809Z,1017.95
2023-02-03T04:53:39.789Z,1017.92
2023-02-03T04:54:39.799Z,1017.88
2023-02-03T04:55:39.792Z,1017.79
2023-02-03T04:56:39.759Z,1017.80
2023-02-03T04:57:39.739Z,1017.80
2023-02-03T04:58:39.734Z,1017.77
2023-02-03T04:59:39.781Z,1017.79
2023-02-03T05:00:39.799Z,1017.88
2023-02-03T05:01:39.706Z,1017.82
2023-02-03T05:02:39.700Z,1017.78
2023-02-03T05:03:39.730Z,1017.74
2023-02-03T05:04:39.682Z,1017.69
2023-02-03T05:05:39.671Z,1017.71
2023-02-03T05:06:39.646Z,1017.70
2023-02-03T05:07:39.619Z,1017.64
2023-02-03T05:08:39.628Z,1017.68
2023-02-03T05:09:39.623Z,1017.68
2023-02-03T05:10:39.608Z,1017.65
2023-02-03T05:11:39.631Z,1017.71
2023-02-03T05:12:39.619Z,1017.67
2023-02-03T05:13:39.563Z,1017.69
2023-02-03T05:14:39.579Z,1017.70
2023-02-03T05:15:39.548Z,1017.68
2023-02-03T05:16:39.565Z,1017.74
2023-02-03T05:17:39.529Z,1017.77
2023-02-03T05:18:39.528Z,1017.77
2023-02-03T05:19:39.535Z,1017.73
2023-02-03T05:20:39.490Z,1017.72
2023-02-03T05:21:39.470Z,1017.68
2023-02-03T05:22:39.501Z,1017.66
2023-02-03T05:23:39.450Z,1017.65
2023-02-03T05:24:39.466Z,1017.63
2023-02-03T05:25:39.444Z,1017.61
2023-02-03T05:26:39.435Z,1017.53
2023-02-03T05:27:39.436Z,1017.52
2023-02-03T05:28:39.434Z,1017.54
2023-02-03T05:29:39.401Z,1017.55
2023-02-03T05:30:39.444Z,1017.55
2023-02-03T05:31:39.421Z,1017.62
2023-02-03T05:32:39.360Z,1017.60
2023-02-03T05:33:39.354Z,1017.64
2023-02-03T05:34:41.385Z,1017.69
2023-02-03T05:35:39.386Z,1017.69
2023-02-03T05:36:39.360Z,1017.69
2023-02-03T05:37:39.321Z,1017.70
2023-02-03T05:38:39.312Z,1017.66
2023-02-03T05:39:39.288Z,1017.61
2023-02-03T05:40:39.292Z,1017.58
2023-02-03T05:41:39.302Z,1017.57
2023-02-03T05:42:39.269Z,1017.57
2023-02-03T05:43:39.251Z,1017.55
2023-02-03T05:44:39.272Z,1017.50
2023-02-03T05:45:39.234Z,1017.55
2023-02-03T05:46:39.222Z,1017.58
2023-02-03T05:47:39.221Z,1017.58
2023-02-03T05:48:39.212Z,1017.60
2023-02-03T05:49:39.179Z,1017.56
2023-02-03T05:50:39.182Z,1017.59
2023-02-03T05:51:39.158Z,1017.60
2023-02-03T05:52:39.171Z,1017.58
2023-02-03T05:53:39.170Z,1017.55
2023-02-03T05:54:39.141Z,1017.47
2023-02-03T05:55:39.129Z,1017.49
2023-02-03T05:56:39.136Z,1017.56
2023-02-03T05:57:39.105Z,1017.67
2023-02-03T05:58:39.087Z,1017.75
2023-02-03T05:59:39.064Z,1017.75
2023-02-03T06:00:39.169Z,1017.70
2023-02-03T06:01:39.080Z,1017.78
2023-02-03T06:02:39.038Z,1017.78
2023-02-03T06:03:39.161Z,1017.72
2023-02-03T06:04:39.123Z,1017.79
2023-02-03T06:05:38.988Z,1017.79
2023-02-03T06:06:38.999Z,1017.77
2023-02-03T06:07:39.005Z,1017.78
2023-02-03T06:08:39.001Z,1017.75
2023-02-03T06:09:38.955Z,1017.67
2023-02-03T06:10:39.001Z,1017.68
2023-02-03T06:11:39.007Z,1017.63
2023-02-03T06:12:38.948Z,1017.56
2023-02-03T06:13:38.932Z,1017.54
2023-02-03T06:14:38.920Z,1017.56
2023-02-03T06:15:38.890Z,1017.58
2023-02-03T06:16:38.997Z,1017.64
2023-02-03T06:17:38.870Z,1017.60
2023-02-03T06:18:38.878Z,1017.65
2023-02-03T06:19:38.884Z,1017.67
2023-02-03T06:20:38.864Z,1017.67
2023-02-03T06:21:38.843Z,1017.70
2023-02-03T06:22:38.821Z,1017.70
2023-02-03T06:23:38.822Z,1017.67
2023-02-03T06:24:38.862Z,1017.65
2023-02-03T06:25:38.781Z,1017.62
2023-02-03T06:26:38.783Z,1017.58
2023-02-03T06:27:38.818Z,1017.65
2023-02-03T06:28:38.794Z,1017.62
2023-02-03T06:29:38.748Z,1017.66
2023-02-03T06:30:38.902Z,1017.57
2023-02-03T06:31:38.922Z,1017.54
2023-02-03T06:32:38.735Z,1017.62
2023-02-03T06:33:38.735Z,1017.62
2023-02-03T06:34:38.746Z,1017.66
2023-02-03T06:35:39.315Z,1017.65
2023-02-03T06:36:38.675Z,1017.66
2023-02-03T06:37:38.717Z,1017.62
2023-02-03T06:38:38.699Z,1017.64
2023-02-03T06:39:38.638Z,1017.58
2023-02-03T06:40:38.703Z,1017.51
2023-02-03T06:41:38.610Z,1017.53
2023-02-03T06:42:38.689Z,1017.58
2023-02-03T06:43:38.596Z,1017.62
2023-02-03T06:44:38.544Z,1017.63
2023-02-03T06:45:38.577Z,1017.61
2023-02-03T06:46:38.599Z,1017.64
2023-02-03T06:47:38.552Z,1017.69
2023-02-03T06:48:38.548Z,1017.73
2023-02-03T06:49:38.543Z,1017.68
2023-02-03T06:50:38.509Z,1017.69
2023-02-03T06:51:38.545Z,1017.71
2023-02-03T06:52:38.489Z,1017.73
2023-02-03T06:53:38.430Z,1017.75
2023-02-03T06:54:38.454Z,1017.83
2023-02-03T06:55:38.423Z,1017.82
2023-02-03T06:56:38.428Z,1017.82
2023-02-03T06:57:38.398Z,1017.84
2023-02-03T06:58:38.396Z,1017.84
2023-02-03T06:59:38.402Z,1017.79
2023-02-03T07:00:38.376Z,1017.85
2023-02-03T07:01:38.368Z,1017.80
2023-02-03T07:02:38.387Z,1017.84
2023-02-03T07:03:38.348Z,1017.83
2023-02-03T07:04:38.337Z,1017.86
2023-02-03T07:05:38.293Z,1017.84
2023-02-03T07:06:38.305Z,1017.84
2023-02-03T07:07:38.274Z,1017.81
2023-02-03T07:08:38.296Z,1017.82
2023-02-03T07:09:38.256Z,1017.85
2023-02-03T07:10:38.276Z,1017.90
2023-02-03T07:11:38.238Z,1017.92
2023-02-03T07:12:38.249Z,1017.94
2023-02-03T07:13:38.273Z,1017.99
2023-02-03T07:14:38.209Z,1017.96
2023-02-03T07:15:38.302Z,1017.99
2023-02-03T07:16:38.190Z,1017.94
2023-02-03T07:17:38.196Z,1017.96
2023-02-03T07:18:47.700Z,1017.92
2023-02-03T07:19:38.186Z,1017.97
2023-02-03T07:20:38.175Z,1018.02
2023-02-03T07:21:38.121Z,1017.98
2023-02-03T07:22:38.133Z,1018.01
2023-02-03T07:23:38.118Z,1018.00
2023-02-03T07:24:38.128Z,1017.93
2023-02-03T07:25:38.125Z,1017.88
2023-02-03T07:26:38.109Z,1017.92
2023-02-03T07:27:38.104Z,1017.90
2023-02-03T07:28:38.067Z,1017.91
2023-02-03T07:29:38.061Z,1017.92
2023-02-03T07:30:38.065Z,1017.89
2023-02-03T07:31:38.217Z,1017.89
2023-02-03T07:32:38.067Z,1017.85
2023-02-03T07:33:37.997Z,1017.91
2023-02-03T07:34:38.043Z,1017.95
2023-02-03T07:35:38.006Z,1017.78
2023-02-03T07:36:38.045Z,1017.95
2023-02-03T07:37:37.966Z,1017.93
2023-02-03T07:38:38.052Z,1017.96
2023-02-03T07:39:37.940Z,1017.99
2023-02-03T07:40:37.932Z,1017.97
2023-02-03T07:41:37.931Z,1017.93
2023-02-03T07:42:37.910Z,1017.92
2023-02-03T07:43:37.920Z,1017.99
2023-02-03T07:44:37.886Z,1017.92
2023-02-03T07:45:37.903Z,1017.88
2023-02-03T07:46:37.929Z,1017.91
2023-02-03T07:47:37.843Z,1017.93
2023-02-03T07:48:37.905Z,1017.90
2023-02-03T07:49:37.917Z,1017.87
2023-02-03T07:50:37.831Z,1017.87
2023-02-03T07:51:37.812Z,1017.85
2023-02-03T07:52:37.828Z,1017.80
2023-02-03T07:53:37.789Z,1017.81
2023-02-03T07:54:37.781Z,1017.74
2023-02-03T07:55:37.804Z,1017.73
2023-02-03T07:56:37.808Z,1017.83
2023-02-03T07:57:37.761Z,1017.87
2023-02-03T07:58:37.733Z,1017.85
2023-02-03T07:59:37.720Z,1017.82
2023-02-03T08:00:37.727Z,1017.95
2023-02-03T08:01:37.817Z,1017.83
2023-02-03T08:02:37.706Z,1017.87
2023-02-03T08:03:37.713Z,1017.84
2023-02-03T08:04:37.734Z,1017.90
2023-02-03T08:05:37.706Z,1018.01
2023-02-03T08:06:37.648Z,1017.96
2023-02-03T08:07:37.667Z,1018.02
2023-02-03T08:08:37.612Z,1018.05
2023-02-03T08:09:37.633Z,1017.97
2023-02-03T08:10:37.609Z,1018.03
2023-02-03T08:11:37.612Z,1018.04
2023-02-03T08:12:37.632Z,1018.00
2023-02-03T08:13:37.592Z,1018.00
2023-02-03T08:14:37.564Z,1017.98
2023-02-03T08:15:37.564Z,1018.04
2023-02-03T08:16:37.580Z,1018.05
2023-02-03T08:17:37.543Z,1018.11
2023-02-03T08:18:37.549Z,1018.06
2023-02-03T08:19:37.546Z,1018.07
2023-02-03T08:20:37.506Z,1017.94
2023-02-03T08:21:37.499Z,1018.07
2023-02-03T08:22:37.488Z,1018.06
2023-02-03T08:23:37.487Z,1018.04
2023-02-03T08:24:37.497Z,1017.96
2023-02-03T08:25:37.478Z,1017.93
2023-02-03T08:26:37.448Z,1017.92
2023-02-03T08:27:37.457Z,1017.94
2023-02-03T08:28:37.421Z,1017.85
2023-02-03T08:29:37.438Z,1017.83
2023-02-03T08:30:37.421Z,1017.79
2023-02-03T08:31:37.524Z,1017.82
2023-02-03T08:32:37.381Z,1017.75
2023-02-03T08:33:37.384Z,1017.79
2023-02-03T08:34:37.339Z,1017.85
2023-02-03T08:35:37.362Z,1017.91
2023-02-03T08:36:37.324Z,1017.86
2023-02-03T08:37:37.330Z,1017.90
2023-02-03T08:38:37.336Z,1017.99
2023-02-03T08:39:37.335Z,1018.00
2023-02-03T08:40:37.285Z,1018.01
2023-02-03T08:41:37.280Z,1017.96
2023-02-03T08:42:37.273Z,1018.09
2023-02-03T08:43:37.271Z,1018.02
2023-02-03T08:44:37.262Z,1018.06
2023-02-03T08:45:37.258Z,1018.10
2023-02-03T08:46:37.231Z,1018.01
2023-02-03T08:47:37.271Z,1017.95
2023-02-03T08:48:37.264Z,1017.96
2023-02-03T08:49:37.217Z,1018.02
2023-02-03T08:50:37.181Z,1017.91
2023-02-03T08:51:37.231Z,1017.98
2023-02-03T08:52:37.160Z,1017.96
2023-02-03T08:53:37.178Z,1017.93
2023-02-03T08:54:37.163Z,1018.01
2023-02-03T08:55:37.157Z,1017.99
2023-02-03T08:56:37.143Z,1018.00
2023-02-03T08:57:37.101Z,1018.02
2023-02-03T08:58:37.112Z,1018.07
2023-02-03T08:59:37.102Z,1018.04
2023-02-03T09:00:37.108Z,1018.12
2023-02-03T09:01:37.072Z,1018.09
2023-02-03T09:02:37.081Z,1018.13
2023-02-03T09:03:37.081Z,1018.03
2023-02-03T09:04:37.152Z,1018.17
2023-02-03T09:05:37.051Z,1018.09
2023-02-03T09:06:37.009Z,1018.16
2023-02-03T09:07:37.079Z,1018.11
2023-02-03T09:08:36.988Z,1018.13
2023-02-03T09:09:37.025Z,1018.06
2023-02-03T09:10:37.052Z,1018.11
2023-02-03T09:11:37.056Z,1018.12
2023-02-03T09:12:36.959Z,1018.15
2023-02-03T09:13:37.009Z,1018.29
2023-02-03T09:14:36.928Z,1018.17
2023-02-03T09:15:36.940Z,1018.21
2023-02-03T09:16:36.953Z,1018.18
2023-02-03T09:17:36.940Z,1018.16
2023-02-03T09:18:36.903Z,1018.24
2023-02-03T09:19:36.905Z,1018.24
2023-02-03T09:20:36.904Z,1018.17
2023-02-03T09:21:41.779Z,1018.25
2023-02-03T09:22:36.862Z,1018.18
2023-02-03T09:23:36.861Z,1018.29
2023-02-03T09:24:36.840Z,1018.26
2023-02-03T09:25:36.826Z,1018.31
2023-02-03T09:26:36.826Z,1018.22
2023-02-03T09:27:36.881Z,1018.19
2023-02-03T09:28:36.794Z,1018.19
2023-02-03T09:29:36.787Z,1018.21
2023-02-03T09:30:36.822Z,1018.16
2023-02-03T09:31:36.881Z,1018.19
2023-02-03T09:32:36.764Z,1018.19
2023-02-03T09:33:36.772Z,1018.29
2023-02-03T09:34:36.737Z,1018.22
2023-02-03T09:35:36.729Z,1018.24
2023-02-03T09:36:36.719Z,1018.13
2023-02-03T09:37:36.917Z,1018.21
2023-02-03T09:38:36.694Z,1018.14
2023-02-03T09:39:36.674Z,1018.13
2023-02-03T09:40:36.695Z,1018.21
2023-02-03T09:41:36.683Z,1018.14
2023-02-03T09:42:36.667Z,1018.24
2023-02-03T09:43:36.644Z,1018.20
2023-02-03T09:44:36.655Z,1018.16
2023-02-03T09:45:36.646Z,1018.10
2023-02-03T09:46:36.591Z,1018.21
2023-02-03T09:47:36.645Z,1018.18
2023-02-03T09:48:36.640Z,1018.15
2023-02-03T09:49:36.626Z,1018.29
2023-02-03T09:50:36.561Z,1018.28
2023-02-03T09:51:36.567Z,1018.23
2023-02-03T09:52:36.548Z,1018.30
2023-02-03T09:53:36.642Z,1018.29
2023-02-03T09:54:36.519Z,1018.42
2023-02-03T09:55:36.543Z,1018.36
2023-02-03T09:56:36.516Z,1018.33
2023-02-03T09:57:36.528Z,1018.44
2023-02-03T09:58:36.461Z,1018.43
2023-02-03T09:59:36.485Z,1018.38
2023-02-03T10:00:36.454Z,1018.36
2023-02-03T10:01:36.470Z,1018.41
2023-02-03T10:02:36.549Z,1018.39
2023-02-03T10:03:36.476Z,1018.29
2023-02-03T10:04:36.405Z,1018.36
2023-02-03T10:05:36.399Z,1018.32
2023-02-03T10:06:36.408Z,1018.27
2023-02-03T10:07:36.389Z,1018.27
2023-02-03T10:08:36.399Z,1018.21
2023-02-03T10:09:36.373Z,1018.29
2023-02-03T10:10:36.385Z,1018.37
2023-02-03T10:11:36.368Z,1018.33
2023-02-03T10:12:36.346Z,1018.33
2023-02-03T10:13:38.048Z,1018.34
2023-02-03T10:14:36.299Z,1018.31
2023-02-03T10:15:36.355Z,1018.35
2023-02-03T10:16:36.327Z,1018.34
2023-02-03T10:17:36.301Z,1018.29
2023-02-03T10:18:36.264Z,1018.30
2023-02-03T10:19:36.254Z,1018.42
2023-02-03T10:20:36.250Z,1018.44
2023-02-03T10:21:36.223Z,1018.42
2023-02-03T10:22:36.240Z,1018.36
2023-02-03T10:23:36.227Z,1018.53
2023-02-03T10:24:36.226Z,1018.47
2023-02-03T10:25:36.256Z,1018.38
2023-02-03T10:26:36.210Z,1018.43
2023-02-03T10:27:36.219Z,1018.29
2023-02-03T10:28:36.150Z,1018.48
2023-02-03T10:29:36.194Z,1018.42
2023-02-03T10:30:36.243Z,1018.42
2023-02-03T10:31:36.242Z,1018.55
2023-02-03T10:32:36.188Z,1018.55
2023-02-03T10:33:36.160Z,1018.60
2023-02-03T10:34:36.162Z,1018.54
2023-02-03T10:35:36.113Z,1018.44
2023-02-03T10:36:36.074Z,1018.49
2023-02-03T10:37:36.066Z,1018.49
2023-02-03T10:38:36.084Z,1018.52
2023-02-03T10:39:36.096Z,1018.49
2023-02-03T10:40:36.069Z,1018.44
2023-02-03T10:41:36.048Z,1018.44
2023-02-03T10:42:36.011Z,1018.49
2023-02-03T10:43:36.006Z,1018.40
2023-02-03T10:44:35.999Z,1018.48
2023-02-03T10:45:36.000Z,1018.43
2023-02-03T10:46:36.114Z,1018.39
2023-02-03T10:47:35.967Z,1018.46
2023-02-03T10:48:35.986Z,1018.46
2023-02-03T10:49:35.964Z,1018.40
2023-02-03T10:50:35.976Z,1018.49
2023-02-03T10:51:35.929Z,1018.43
2023-02-03T10:52:35.912Z,1018.48
2023-02-03T10:53:35.921Z,1018.52
2023-02-03T10:54:35.881Z,1018.46
2023-02-03T10:55:35.885Z,1018.44
2023-02-03T10:56:35.858Z,1018.48
2023-02-03T10:57:35.897Z,1018.50
2023-02-03T10:58:35.839Z,1018.48
2023-02-03T10:59:35.846Z,1018.51
2023-02-03T11:00:35.811Z,1018.53
2023-02-03T11:01:35.985Z,1018.64
2023-02-03T11:02:35.873Z,1018.53
2023-02-03T11:03:35.789Z,1018.55
2023-02-03T11:04:35.775Z,1018.57
2023-02-03T11:05:35.806Z,1018.56
2023-02-03T11:06:35.861Z,1018.59
2023-02-03T11:07:35.746Z,1018.61
2023-02-03T11:08:35.809Z,1018.57
2023-02-03T11:09:35.775Z,1018.63
2023-02-03T11:10:35.983Z,1018.53
2023-02-03T11:11:35.718Z,1018.56
2023-02-03T11:12:35.686Z,1018.56
2023-02-03T11:13:35.714Z,1018.58
2023-02-03T11:14:35.682Z,1018.59
2023-02-03T11:15:35.726Z,1018.57
2023-02-03T11:16:37.404Z,1018.58
2023-02-03T11:17:35.647Z,1018.57
2023-02-03T11:18:35.630Z,1018.59
2023-02-03T11:19:35.629Z,1018.55
2023-02-03T11:20:35.629Z,1018.59
2023-02-03T11:21:35.631Z,1018.59
2023-02-03T11:22:35.630Z,1018.69
2023-02-03T11:23:35.581Z,1018.65
2023-02-03T11:24:35.575Z,1018.64
2023-02-03T11:25:35.559Z,1018.65
2023-02-03T11:26:35.595Z,1018.62
2023-02-03T11:27:35.535Z,1018.68
2023-02-03T11:28:35.530Z,1018.65
2023-02-03T11:29:35.546Z,1018.71
2023-02-03T11:30:35.498Z,1018.70
2023-02-03T11:31:35.651Z,1018.67
2023-02-03T11:32:35.555Z,1018.66
2023-02-03T11:33:35.477Z,1018.67
2023-02-03T11:34:35.506Z,1018.63
2023-02-03T11:35:35.476Z,1018.60
2023-02-03T11:36:35.462Z,1018.53
2023-02-03T11:37:35.435Z,1018.58
2023-02-03T11:38:35.457Z,1018.56
2023-02-03T11:39:35.429Z,1018.57
2023-02-03T11:40:35.418Z,1018.60
2023-02-03T11:41:35.431Z,1018.65
2023-02-03T11:42:35.379Z,1018.62
2023-02-03T11:43:35.366Z,1018.67
2023-02-03T11:44:35.362Z,1018.66
2023-02-03T11:45:35.357Z,1018.65
2023-02-03T11:46:35.425Z,1018.62
2023-02-03T11:47:35.375Z,1018.65
2023-02-03T11:48:35.323Z,1018.58
2023-02-03T11:49:35.328Z,1018.57
2023-02-03T11:50:35.284Z,1018.56
2023-02-03T11:51:35.290Z,1018.59
2023-02-03T11:52:35.260Z,1018.57
2023-02-03T11:53:42.313Z,1018.54
2023-02-03T11:54:35.245Z,1018.63
2023-02-03T11:55:35.278Z,1018.59
2023-02-03T11:56:35.230Z,1018.63
2023-02-03T11:57:35.267Z,1018.66
2023-02-03T11:58:35.221Z,1018.66
2023-02-03T11:59:35.225Z,1018.73
2023-02-03T12:00:35.197Z,1018.59
2023-02-03T12:01:35.217Z,1018.66
2023-02-03T12:02:35.212Z,1018.67
2023-02-03T12:03:35.193Z,1018.58
2023-02-03T12:04:35.241Z,1018.61
2023-02-03T12:05:35.193Z,1018.61